• Join FlightAware (Why Join?)
  • Login
  • US Flag 
01:05AM EST


 

Airport Tracker/Info


-or-


 

Live Flight TrackerFlight Track Log ✈ DAL268 ✈ 25-Apr-2013 ✈ KJFK - LLBG / TLV

Flight Track Log - Related Links

Times and Time Zones

All times are in EDT time to prevent confusion due to time zone crossing. See the DAL268 flight status page for this flight to view local times or setup timezone preferences in your user account.

Time Position Orientation Groundspeed Altitude Reporting Facility
EDT Latitude Longitude Course Direction KTS MPH feet Rate Location/Type
11:44PM 40.6450 -73.8130 302° West 179 206 200  Level FlightAware
11:45PM 40.6480 -73.8260 287° West 180 207 500 1,560 Climbing FlightAware
11:45PM 40.6420 -73.8460 248° West 181 208 1,000 1,680 Climbing FlightAware
11:45PM 40.6340 -73.8570 226° Southwest 182 209 1,500 1,920 Climbing FlightAware
11:46PM 40.6150 -73.8700 207° Southwest 188 216 2,300 1,800 Climbing FlightAware
11:46PM 40.6030 -73.8780 207° Southwest 188 216 2,700 1,440 Climbing FlightAware
11:46PM 40.5960 -73.8790 186° South 198 228 2,900 960 Climbing FlightAware
11:46PM 40.5770 -73.8670 154° Southeast 224 258 3,200 960 Climbing FlightAware
11:46PM 40.5710 -73.8540 121° Southeast 236 272 3,400 900 Climbing FlightAware
11:47PM 40.5700 -73.8400 95° East 246 283 3,500 1,200 Climbing FlightAware
11:47PM 40.5870 -73.7900 66° East 268 308 4,300 1,320 Climbing FlightAware
11:47PM 40.5970 -73.7700 57° Northeast 280 322 4,600 1,800 Climbing FlightAware
11:48PM 40.6150 -73.7330 57° Northeast 292 336 5,500 2,280 Climbing FlightAware
11:48PM 40.6370 -73.6870 58° Northeast 300 345 6,700 2,400 Climbing FlightAware
11:49PM 40.6550 -73.6470 59° Northeast 308 354 7,700 2,400 Climbing FlightAware
11:49PM 40.6708 -73.6140 58° Northeast 313 360 8,500 2,520 Climbing FlightAware ADS-B
11:49PM 40.6859 -73.5820 58° Northeast 315 362 9,300 2,580 Climbing FlightAware ADS-B
11:50PM 40.6952 -73.5646 55° Northeast 319 367 9,800 2,280 Climbing FlightAware ADS-B
11:50PM 40.7060 -73.5500 46° Northeast 322 371 10,100 1,020 Climbing FlightAware ADS-B
11:50PM 40.7600 -73.5130 27° Northeast 357 411 10,700 1,020 Climbing FlightAware
11:51PM 40.8230 -73.4740 25° Northeast 393 452 11,500 1,620 Climbing FlightAware
11:52PM 40.8970 -73.4280 25° Northeast 409 471 13,000 2,100 Climbing FlightAware
11:53PM 40.9690 -73.3850 24° Northeast 420 483 14,500 2,280 Climbing FlightAware
11:53PM 40.9855 -73.3742 26° Northeast 423 487 14,800 1,920 Climbing FlightAware ADS-B
11:53PM 41.0420 -73.3390 25° Northeast 433 498 15,800 1,800 Climbing FlightAware
11:53PM 41.0630 -73.3262 25° Northeast 436 502 16,100 1,680 Climbing FlightAware ADS-B
11:54PM 41.1240 -73.2890 25° Northeast 445 512 17,100 1,740 Climbing FlightAware
11:54PM 41.1522 -73.2709 26° Northeast 446 513 17,500 1,920 Climbing FlightAware ADS-B
11:55PM 41.2009 -73.2341 30° Northeast 459 528 18,400 1,680 Climbing FlightAware ADS-B
11:55PM 41.2590 -73.1610 43° Northeast 471 542 19,400 1,440 Climbing FlightAware
11:56PM 41.3190 -73.0650 50° Northeast 483 556 20,500 1,500 Climbing FlightAware
11:57PM 41.4020 -72.9300 51° Northeast 497 572 21,900 1,260 Climbing FlightAware
11:58PM 41.4530 -72.8470 51° Northeast 486 559 22,500 1,080 Climbing FlightAware
11:58PM 41.5160 -72.7460 50° Northeast 486 559 23,400 1,320 Climbing FlightAware
11:59PM 41.5960 -72.6170 50° Northeast 527 606 24,500 1,200 Climbing FlightAware
12:00AM 41.6690 -72.4800 54° Northeast 538 619 25,500 1,020 Climbing FlightAware
12:01AM 41.7270 -72.3520 59° Northeast 548 631 26,200 1,200 Climbing FlightAware
12:03AM 41.9320 -71.8990 59° Northeast 560 644 29,400 1,260 Climbing FlightAware
12:04AM 42.0210 -71.7550 50° Northeast 562 647 30,600 960 Climbing FlightAware
12:05AM 42.1090 -71.6510 41° Northeast 568 654 31,000 240 Climbing FlightAware
12:06AM 42.2000 -71.5470 40° Northeast 568 654 31,000  Level FlightAware
12:06AM 42.2780 -71.4570 40° Northeast 567 652 31,000  Level FlightAware
12:07AM 42.3650 -71.3580 40° Northeast 567 652 31,000  Level FlightAware
12:08AM 42.4500 -71.2610 40° Northeast 568 654 31,000  Level FlightAware
12:08AM 42.5310 -71.1700 40° Northeast 569 655 31,000  Level FlightAware
12:09AM 42.6240 -71.0650 40° Northeast 571 657 31,000  Level FlightAware
12:10AM 42.7040 -70.9740 40° Northeast 572 658 31,000 -120 Level FlightAware
12:11AM 42.7950 -70.8700 40° Northeast 572 658 30,900  Descending FlightAware
12:11AM 42.8760 -70.7770 40° Northeast 571 657 31,000 60 Climbing FlightAware
12:12AM 42.9560 -70.6850 40° Northeast 572 658 31,000  Level FlightAware
12:13AM 43.0470 -70.5800 40° Northeast 571 657 31,000  Level FlightAware
12:13AM 43.1270 -70.4870 40° Northeast 571 657 31,000  Level FlightAware
12:14AM 43.2190 -70.3800 40° Northeast 572 658 31,000  Level FlightAware
12:15AM 43.3010 -70.2840 40° Northeast 573 659 31,000  Level FlightAware
12:15AM 43.3820 -70.1890 40° Northeast 573 659 31,000  Level FlightAware
12:16AM 43.4700 -70.0840 41° Northeast 574 661 31,000  Level FlightAware
12:17AM 43.5510 -69.9870 41° Northeast 575 662 31,000  Level FlightAware
12:18AM 43.6420 -69.8770 41° Northeast 575 662 31,000  Level FlightAware
12:18AM 43.7230 -69.7800 41° Northeast 574 661 31,000  Level FlightAware
12:19AM 43.8160 -69.6670 41° Northeast 574 661 31,000  Level FlightAware
12:20AM 43.8990 -69.5660 41° Northeast 574 661 31,000  Level FlightAware
12:21AM 43.9950 -69.4480 41° Northeast 568 654 31,000  Level FlightAware
12:21AM 44.0680 -69.3580 42° Northeast 567 652 31,000  Level FlightAware
12:22AM 44.1660 -69.2380 41° Northeast 574 661 31,000  Level FlightAware
12:23AM 44.2330 -69.1550 42° Northeast 576 663 31,000  Level FlightAware
12:23AM 44.3400 -69.0230 41° Northeast 573 659 31,000  Level FlightAware
12:24AM 44.4190 -68.9250 42° Northeast 573 659 31,000  Level FlightAware
12:25AM 44.5000 -68.8250 41° Northeast 575 662 31,000  Level FlightAware
12:25AM 44.5870 -68.7170 41° Northeast 575 662 31,000  Level FlightAware
12:26AM 44.6660 -68.6170 42° Northeast 574 661 31,000  Level FlightAware
12:27AM 44.7560 -68.5030 42° Northeast 574 661 31,000  Level FlightAware
12:28AM 44.8350 -68.4030 42° Northeast 573 659 31,000  Level FlightAware
12:28AM 44.9130 -68.3030 42° Northeast 573 659 31,000  Level FlightAware
12:29AM 45.0020 -68.1900 42° Northeast 573 659 31,000  Level FlightAware
12:30AM 45.0790 -68.0910 42° Northeast 573 659 31,000  Level FlightAware
12:30AM 45.1590 -67.9890 42° Northeast 571 657 31,000 -120 Level FlightAware
12:31AM 45.2047 -67.9292 42° Northeast 574 661 30,900 -120 Descending Boston Center
12:32AM 45.3217 -67.7783 42° Northeast 574 661 30,900 60 Level Boston Center
12:32AM 45.3333 -67.7333 70° East 570 656 31,000  Climbing Moncton Center
12:38AM 46.0380 -66.8290 70° East 582 670 31,000  Level FlightAware
12:38AM 46.1180 -66.7210 43° Northeast 584 672 31,000  Level FlightAware
12:39AM 46.1970 -66.6140 43° Northeast 585 673 31,000  Level FlightAware
12:40AM 46.2833 -66.4833 43° Northeast 580 667 31,000 -60 Level Moncton Center
12:41AM 46.4000 -66.3167 45° Northeast 590 679 30,900  Descending Moncton Center
12:42AM 46.5333 -66.1500 41° Northeast 590 679 31,000  Climbing Moncton Center
12:43AM 46.6333 -65.9833 49° Northeast 590 679 31,000  Level Moncton Center
12:44AM 46.7500 -65.8167 44° Northeast 590 679 31,000  Level Moncton Center
12:45AM 46.8667 -65.6500 44° Northeast 600 690 31,000  Level Moncton Center
12:46AM 47.0000 -65.4833 40° Northeast 590 679 31,000  Level Moncton Center
12:47AM 47.1167 -65.3000 47° Northeast 590 679 31,000  Level Moncton Center
12:48AM 47.2333 -65.1333 44° Northeast 590 679 31,000  Level Moncton Center
12:49AM 47.3500 -64.9667 44° Northeast 590 679 31,000  Level Moncton Center
12:50AM 47.4667 -64.8000 44° Northeast 590 679 31,000  Level Moncton Center
12:51AM 47.5667 -64.6167 51° Northeast 590 679 31,000  Level Moncton Center
12:52AM 47.7000 -64.4500 40° Northeast 580 667 31,000  Level Moncton Center
12:53AM 47.8000 -64.2667 51° Northeast 590 679 31,000 -60 Level Moncton Center
12:54AM 47.9167 -64.1000 44° Northeast 590 679 30,900  Descending Moncton Center
12:54AM 47.9667 -64.0500 34° Northeast 580 667 31,000 60 Climbing Gander Center
12:55AM 48.0667 -63.8833 48° Northeast 590 679 31,000  Level Gander Center
12:56AM 48.1500 -63.7667 43° Northeast 580 667 31,000  Level Moncton Center
12:57AM 48.2667 -63.6000 44° Northeast 570 656 31,000  Level Moncton Center
12:58AM 48.3667 -63.4167 51° Northeast 580 667 31,000  Level Moncton Center
12:59AM 48.4833 -63.2333 46° Northeast 560 644 31,000  Level Moncton Center
01:00AM 48.6000 -63.0833 40° Northeast 590 679 31,000  Level Moncton Center
01:00AM 48.6333 -63.0000 59° Northeast 580 667 31,000  Level Gander Center
01:01AM 48.7167 -62.8667 47° Northeast 570 656 31,000  Level Moncton Center
01:02AM 48.8333 -62.7167 40° Northeast 570 656 31,000  Level Moncton Center
01:03AM 48.9333 -62.5333 50° Northeast 570 656 31,000  Level Moncton Center
01:03AM 48.9667 -62.4833 45° Northeast 580 667 31,000  Level Gander Center
01:04AM 49.0333 -62.3500 53° Northeast 570 656 31,000  Level Moncton Center
01:05AM 49.1500 -62.2000 40° Northeast 580 667 31,000  Level Moncton Center
01:05AM 49.1833 -62.1333 53° Northeast 580 667 31,000  Level Gander Center
01:06AM 49.2667 -61.9833 50° Northeast 570 656 31,000  Level Moncton Center
01:07AM 49.3667 -61.8333 44° Northeast 570 656 31,000  Level Moncton Center
01:08AM 49.4833 -61.6333 48° Northeast 570 656 31,000  Level Moncton Center
01:08AM 49.5167 -61.5833 44° Northeast 570 656 31,000  Level Gander Center
01:09AM 49.6167 -61.4167 47° Northeast 570 656 31,000  Level Gander Center
01:10AM 49.7167 -61.2333 50° Northeast 560 644 31,000  Level Gander Center
01:11AM 49.8000 -61.1000 46° Northeast 570 656 31,000  Level Moncton Center
01:12AM 49.9000 -60.9167 50° Northeast 560 644 31,000  Level Moncton Center
01:12AM 49.9333 -60.8667 44° Northeast 570 656 31,000  Level Gander Center
01:13AM 50.0333 -60.6833 50° Northeast 560 644 31,000  Level Gander Center
01:14AM 50.1167 -60.5667 42° Northeast 570 656 31,000  Level Moncton Center
01:15AM 50.2167 -60.3667 52° Northeast 570 656 31,000  Level Moncton Center
01:15AM 50.2500 -60.3167 44° Northeast 570 656 31,000  Level Gander Center
01:16AM 50.3667 -60.1333 45° Northeast 560 644 31,000  Level Gander Center
01:17AM 50.4667 -59.9500 49° Northeast 570 656 31,000  Level Gander Center
01:18AM 50.5667 -59.7500 52° Northeast 560 644 31,000  Level Gander Center
01:19AM 50.6833 -59.5667 45° Northeast 560 644 31,000  Level Gander Center
01:20AM 50.7667 -59.3833 54° Northeast 560 644 31,000 420 Level Gander Center
01:21AM 50.8333 -59.2500 52° Northeast 560 644 31,800 1,140 Climbing Moncton Center
01:22AM 50.9333 -59.0333 54° Northeast 560 644 33,000 600 Climbing Moncton Center
01:23AM 51.0167 -58.8333 56° Northeast 560 644 33,000 -120 Level Moncton Center
01:23AM 51.0500 -58.7833 43° Northeast 570 656 32,900 -120 Descending Gander Center
01:24AM 51.1500 -58.5833 51° Northeast 560 644 32,900  Level Gander Center
01:25AM 51.2333 -58.3667 58° Northeast 560 644 33,000  Climbing Gander Center
01:26AM 51.3333 -58.1833 49° Northeast 560 644 32,900 -60 Descending Gander Center
01:27AM 51.4333 -57.9833 51° Northeast 560 644 32,900  Level Gander Center
01:28AM 51.5000 -57.7833 62° Northeast 560 644 32,900  Level Gander Center
01:29AM 51.6000 -57.6000 49° Northeast 560 644 32,900  Level Gander Center
01:30AM 51.6667 -57.4333 57° Northeast 560 644 33,000  Climbing Moncton Center
01:31AM 51.7500 -57.2333 56° Northeast 550 633 32,900  Descending Moncton Center
01:32AM 51.8500 -57.0167 53° Northeast 560 644 33,000 60 Climbing Moncton Center
01:32AM 51.8833 -56.9500 51° Northeast 560 644 33,000 -120 Level Gander Center
01:33AM 51.9333 -56.8167 59° Northeast 560 644 32,900  Descending Moncton Center
01:34AM 52.0167 -56.6167 56° Northeast 550 633 33,000 60 Climbing Moncton Center
01:34AM 52.0500 -56.5500 51° Northeast 560 644 33,000 -120 Level Gander Center
01:35AM 52.1333 -56.3500 56° Northeast 560 644 32,900  Descending Gander Center
01:36AM 52.2167 -56.2000 48° Northeast 560 644 33,000  Climbing Moncton Center
01:37AM 52.2833 -56.0000 61° Northeast 560 644 32,900  Descending Moncton Center
01:38AM 52.3833 -55.7833 53° Northeast 550 633 33,000  Climbing Moncton Center
01:38AM 52.4000 -55.7167 68° East 550 633 32,900  Descending Gander Center
01:39AM 52.4500 -55.5667 61° Northeast 560 644 33,000  Climbing Moncton Center
01:40AM 52.5500 -55.3667 51° Northeast 550 633 33,000 -60 Level Moncton Center
01:41AM 52.6167 -55.1500 63° Northeast 540 621 32,900  Descending Moncton Center
01:41AM 52.6500 -55.1000 42° Northeast 540 621 33,000  Climbing Gander Center
01:42AM 52.7333 -54.9333 50° Northeast 530 610 32,900  Descending Gander Center
01:43AM 52.8000 -54.7167 63° Northeast 530 610 33,000  Climbing Gander Center
01:44AM 52.8833 -54.5167 55° Northeast 530 610 32,900  Descending Gander Center
01:45AM 52.9833 -54.3000 52° Northeast 540 621 33,000  Climbing Gander Center
01:46AM 53.0500 -54.1000 61° Northeast 540 621 32,900  Descending Gander Center
01:47AM 53.0667 -54.0667 67° East 518 596 33,000 60 Climbing ETMS Enhanced Traffic Management System
01:47AM 53.1000 -53.8667 67° East 540 621 33,000  Level Gander Center
01:48AM 53.1500 -53.6333 70° East 530 610 33,000  Level Gander Center
01:49AM 53.2000 -53.4000 70° East 520 598 33,000  Level Gander Center
01:50AM 53.2667 -53.2000 61° Northeast 530 610 33,000 -60 Level Gander Center
01:51AM 53.3167 -52.9667 70° East 530 610 32,900  Descending Gander Center
01:52AM 53.3667 -52.7167 71° East 530 610 33,000  Climbing Gander Center
01:53AM 53.4167 -52.4833 70° East 530 610 33,000 -60 Level Gander Center
01:54AM 53.4667 -52.2500 70° East 530 610 32,900  Descending Gander Center
01:55AM 53.5167 -52.0500 67° East 530 610 33,000  Climbing Gander Center
01:56AM 53.5667 -51.8000 71° East 520 598 32,900 -60 Descending Gander Center
01:57AM 53.6167 -51.5667 70° East 530 610 32,900  Level Gander Center
01:58AM 53.6833 -51.3500 62° Northeast 530 610 32,900  Level Gander Center
01:59AM 53.7167 -51.1167 76° East 530 610 33,000  Climbing Gander Center
02:02AM 53.8187 -50.7209 66° East  Level FlightAware Approximate
02:03AM 53.9167 -50.1833 67° East 290 334 32,900  Level Gander Center
02:04AM 53.9333 -50.0833 74° East 330 380 33,000  Climbing Gander Center
02:05AM 53.9833 -49.8500 70° East 470 541 32,900  Descending Gander Center
02:07AM 54.0544 -49.5727 66° East  Level FlightAware Approximate
02:09AM 54.2084 -49.1502 67° East  Level FlightAware Approximate
02:09AM 54.0000 -50.0000 67° East 520 598 33,000  Level ETMS Enhanced Traffic Management System
02:14AM 54.4356 -48.0234 67° East  Level FlightAware Approximate
02:15AM 54.6020 -47.4793 69° East 520 598 33,000  Level FlightAware Transoceanic
02:16AM 54.6540 -47.2465 69° East 520 598 33,000  Level FlightAware Transoceanic
02:17AM 54.7057 -47.0131 69° East 520 598 33,000  Level FlightAware Transoceanic
02:18AM 54.7569 -46.7791 69° East 520 598 33,000  Level FlightAware Transoceanic
02:19AM 54.8076 -46.5446 70° East 520 598 33,000  Level FlightAware Transoceanic
02:20AM 54.8579 -46.3094 70° East 520 598 33,000  Level FlightAware Transoceanic
02:21AM 54.9078 -46.0737 70° East 520 598 33,000  Level FlightAware Transoceanic
02:22AM 54.9571 -45.8374 70° East 520 598 33,000  Level FlightAware Transoceanic
02:23AM 55.0061 -45.6005 70° East 520 598 33,000  Level FlightAware Transoceanic
02:24AM 55.0545 -45.3630 71° East 520 598 33,000  Level FlightAware Transoceanic
02:25AM 55.1025 -45.1250 71° East 520 598 33,000  Level FlightAware Transoceanic
02:26AM 55.1500 -44.8863 71° East 520 598 33,000  Level FlightAware Transoceanic
02:27AM 55.1971 -44.6472 71° East 520 598 33,000  Level FlightAware Transoceanic
02:28AM 55.2437 -44.4074 71° East 520 598 33,000  Level FlightAware Transoceanic
02:29AM 55.2898 -44.1671 71° East 520 598 33,000  Level FlightAware Transoceanic
02:30AM 55.3354 -43.9263 72° East 520 598 33,000  Level FlightAware Transoceanic
02:31AM 55.3806 -43.6848 72° East 520 598 33,000  Level FlightAware Transoceanic
02:32AM 55.4253 -43.4429 72° East 520 598 33,000  Level FlightAware Transoceanic
02:33AM 55.4695 -43.2004 72° East 520 598 33,000  Level FlightAware Transoceanic
02:34AM 55.5133 -42.9573 72° East 520 598 33,000  Level FlightAware Transoceanic
02:35AM 55.5565 -42.7137 73° East 520 598 33,000  Level FlightAware Transoceanic
02:36AM 55.5993 -42.4696 73° East 520 598 33,000  Level FlightAware Transoceanic
02:37AM 55.6416 -42.2250 73° East 520 598 33,000  Level FlightAware Transoceanic
02:38AM 55.6834 -41.9798 73° East 520 598 33,000  Level FlightAware Transoceanic
02:39AM 55.7247 -41.7341 73° East 520 598 33,000  Level FlightAware Transoceanic
02:40AM 55.7655 -41.4879 74° East 520 598 33,000  Level FlightAware Transoceanic
02:41AM 55.8058 -41.2412 74° East 520 598 33,000  Level FlightAware Transoceanic
02:42AM 55.8457 -40.9939 74° East 520 598 33,000  Level FlightAware Transoceanic
02:43AM 55.8850 -40.7462 74° East 520 598 33,000  Level FlightAware Transoceanic
02:44AM 55.9238 -40.4980 75° East 520 598 33,000  Level FlightAware Transoceanic
02:45AM 55.9622 -40.2492 75° East 520 598 33,000  Level FlightAware Transoceanic
02:46AM 55.9989 -40.0072 75° East  Level FlightAware Approximate
02:47AM 56.0352 -39.7647 75° East  Level FlightAware Approximate
02:48AM 56.0066 -39.7642 87° East  Level FlightAware Approximate
02:49AM 56.0132 -39.5134 87° East  Level FlightAware Approximate
02:50AM 56.0192 -39.2626 87° East  Level FlightAware Approximate
02:51AM 56.0248 -39.0117 88° East  Level FlightAware Approximate
02:51AM 56.0000 -40.0000 86° East 515 593 33,000  Level ETMS Enhanced Traffic Management System
02:52AM 56.0298 -38.7608 88° East  Level FlightAware Approximate
02:53AM 56.0350 -38.5104 87° East  Level FlightAware Approximate
02:54AM 56.0424 -38.2602 87° East  Level FlightAware Approximate
02:55AM 56.0492 -38.0098 87° East  Level FlightAware Approximate
02:56AM 56.0555 -37.7594 87° East  Level FlightAware Approximate
02:57AM 56.0771 -37.4392 88° East 515 593 33,000  Level FlightAware Transoceanic
02:58AM 56.0819 -37.1826 88° East 515 593 33,000  Level FlightAware Transoceanic
02:59AM 56.0862 -36.9259 88° East 515 593 33,000  Level FlightAware Transoceanic
03:00AM 56.0899 -36.6693 89° East 515 593 33,000  Level FlightAware Transoceanic
03:01AM 56.0931 -36.4125 89° East 515 593 33,000  Level FlightAware Transoceanic
03:02AM 56.0958 -36.1558 89° East 515 593 33,000  Level FlightAware Transoceanic
03:03AM 56.0979 -35.8990 89° East 515 593 33,000  Level FlightAware Transoceanic
03:04AM 56.0995 -35.6421 89° East 515 593 33,000  Level FlightAware Transoceanic
03:05AM 56.1006 -35.3853 90° East 515 593 33,000  Level FlightAware Transoceanic
03:06AM 56.1011 -35.1284 90° East 515 593 33,000  Level FlightAware Transoceanic
03:07AM 56.1011 -34.8716 90° East 515 593 33,000  Level FlightAware Transoceanic
03:08AM 56.1006 -34.6147 90° East 515 593 33,000  Level FlightAware Transoceanic
03:09AM 56.0995 -34.3579 91° East 515 593 33,000  Level FlightAware Transoceanic
03:10AM 56.0979 -34.1010 91° East 515 593 33,000  Level FlightAware Transoceanic
03:11AM 56.0958 -33.8442 91° East 515 593 33,000  Level FlightAware Transoceanic
03:12AM 56.0931 -33.5875 91° East 515 593 33,000  Level FlightAware Transoceanic
03:13AM 56.0899 -33.3307 91° East 515 593 33,000  Level FlightAware Transoceanic
03:14AM 56.0862 -33.0741 92° East 515 593 33,000  Level FlightAware Transoceanic
03:15AM 56.0819 -32.8174 92° East 515 593 33,000  Level FlightAware Transoceanic
03:16AM 56.0771 -32.5608 92° East 515 593 33,000  Level FlightAware Transoceanic
03:17AM 56.0718 -32.3044 92° East 515 593 33,000  Level FlightAware Transoceanic
03:18AM 56.0660 -32.0479 92° East 515 593 33,000  Level FlightAware Transoceanic
03:19AM 56.0596 -31.7916 93° East 515 593 33,000  Level FlightAware Transoceanic
03:20AM 56.0527 -31.5353 93° East 515 593 33,000  Level FlightAware Transoceanic
03:21AM 56.0452 -31.2792 93° East 515 593 33,000  Level FlightAware Transoceanic
03:22AM 56.0372 -31.0231 93° East 515 593 33,000  Level FlightAware Transoceanic
03:23AM 56.0287 -30.7671 94° East 515 593 33,000  Level FlightAware Transoceanic
03:24AM 56.0197 -30.5113 94° East 515 593 33,000  Level FlightAware Transoceanic
03:25AM 56.0101 -30.2556 94° East 515 593 33,000  Level FlightAware Transoceanic
03:26AM 56.0001 -30.0030 94° East  Level FlightAware Approximate
03:27AM 55.9898 -29.7505 94° East  Level FlightAware Approximate
03:28AM 55.9856 -29.7542 96° East  Level FlightAware Approximate
03:29AM 55.9704 -29.5027 96° East  Level FlightAware Approximate
03:30AM 55.9547 -29.2513 96° East  Level FlightAware Approximate
03:31AM 55.9384 -29.0002 96° East  Level FlightAware Approximate
03:32AM 55.9217 -28.7492 97° East  Level FlightAware Approximate
03:32AM 56.0000 -30.0000 96° East 517 595 33,000  Level ETMS Enhanced Traffic Management System
03:33AM 55.9044 -28.4985 97° East  Level FlightAware Approximate
03:34AM 55.8867 -28.2480 97° East  Level FlightAware Approximate
03:35AM 55.8684 -27.9978 97° East  Level FlightAware Approximate
03:36AM 55.8496 -27.7477 98° East  Level FlightAware Approximate
03:37AM 55.8303 -27.4980 98° East  Level FlightAware Approximate
03:38AM 55.7649 -26.6966 99° East 517 595 33,000  Level FlightAware Transoceanic
03:39AM 55.7431 -26.4442 99° East 517 595 33,000  Level FlightAware Transoceanic
03:40AM 55.7209 -26.1922 99° East 517 595 33,000  Level FlightAware Transoceanic
03:41AM 55.6981 -25.9404 99° East 517 595 33,000  Level FlightAware Transoceanic
03:42AM 55.6748 -25.6889 99° East 517 595 33,000  Level FlightAware Transoceanic
03:43AM 55.6510 -25.4377 100° East 517 595 33,000  Level FlightAware Transoceanic
03:44AM 55.6267 -25.1869 100° East 517 595 33,000  Level FlightAware Transoceanic
03:45AM 55.6019 -24.9363 100° East 517 595 33,000  Level FlightAware Transoceanic
03:46AM 55.5765 -24.6861 100° East 517 595 33,000  Level FlightAware Transoceanic
03:47AM 55.5507 -24.4362 100° East 517 595 33,000  Level FlightAware Transoceanic
03:48AM 55.5244 -24.1867 101° East 517 595 33,000  Level FlightAware Transoceanic
03:49AM 55.4975 -23.9374 101° East 517 595 33,000  Level FlightAware Transoceanic
03:50AM 55.4701 -23.6885 101° East 517 595 33,000  Level FlightAware Transoceanic
03:51AM 55.4423 -23.4400 101° East 517 595 33,000  Level FlightAware Transoceanic
03:52AM 55.4139 -23.1918 101° East 517 595 33,000  Level FlightAware Transoceanic
03:53AM 55.3851 -22.9440 102° East 517 595 33,000  Level FlightAware Transoceanic
03:54AM 55.3557 -22.6965 102° East 517 595 33,000  Level FlightAware Transoceanic
03:55AM 55.3258 -22.4494 102° East 517 595 33,000  Level FlightAware Transoceanic
03:56AM 55.2955 -22.2027 102° East 517 595 33,000  Level FlightAware Transoceanic
03:57AM 55.2646 -21.9564 103° East 517 595 33,000  Level FlightAware Transoceanic
03:58AM 55.2332 -21.7104 103° East 517 595 33,000  Level FlightAware Transoceanic
03:59AM 55.2014 -21.4649 103° East 517 595 33,000  Level FlightAware Transoceanic
04:00AM 55.1690 -21.2197 103° East 517 595 33,000  Level FlightAware Transoceanic
04:01AM 55.1362 -20.9750 103° East 517 595 33,000  Level FlightAware Transoceanic
04:02AM 55.1029 -20.7306 104° East 517 595 33,000  Level FlightAware Transoceanic
04:03AM 55.0691 -20.4867 104° East 517 595 33,000  Level FlightAware Transoceanic
04:04AM 55.0348 -20.2431 104° East 517 595 33,000 60 Level FlightAware Transoceanic
04:05AM 55.0005 -20.0035 104° East  Level FlightAware Approximate
04:06AM 54.9657 -19.7644 104° East  Level FlightAware Approximate
04:07AM 54.9705 -19.7661 102° East  Level FlightAware Approximate
04:08AM 54.9396 -19.5256 103° East  Level FlightAware Approximate
04:09AM 54.9086 -19.2884 103° East  Level FlightAware Approximate
04:10AM 54.8772 -19.0516 103° East  Level FlightAware Approximate
04:11AM 54.8453 -18.8151 103° East  Level FlightAware Approximate
04:12AM 54.8129 -18.5791 103° East  Level FlightAware Approximate
04:13AM 54.7801 -18.3434 103° East  Level FlightAware Approximate
04:14AM 54.7469 -18.1081 104° East  Level FlightAware Approximate
04:15AM 54.7132 -17.8732 104° East  Level FlightAware Approximate
04:16AM 54.6790 -17.6387 104° East  Level FlightAware Approximate
04:17AM 54.6444 -17.4046 104° East  Level FlightAware Approximate
04:18AM 54.6093 -17.1709 104° East  Level FlightAware Approximate
04:19AM 54.5742 -16.9374 104° East  Level FlightAware Approximate
04:20AM 54.5396 -16.7039 104° East  Level FlightAware Approximate
04:21AM 54.5046 -16.4708 104° East  Level FlightAware Approximate
04:22AM 54.4692 -16.2380 105° East  Level FlightAware Approximate
04:23AM 54.4333 -16.0057 105° East  Level FlightAware Approximate
04:24AM 54.3970 -15.7737 105° East  Level FlightAware Approximate
04:25AM 54.3602 -15.5422 105° East  Level FlightAware Approximate
04:26AM 54.3230 -15.3111 105° East  Level FlightAware Approximate
04:27AM 54.2853 -15.0804 106° East  Level FlightAware Approximate
04:28AM 54.2472 -14.8502 106° East  Level FlightAware Approximate
04:29AM 54.2087 -14.6203 106° East  Level FlightAware Approximate
04:30AM 54.1697 -14.3910 106° East  Level FlightAware Approximate
04:31AM 54.1303 -14.1620 106° East  Level FlightAware Approximate
04:31AM 53.8690 -14.1220 105° East 512 589 35,000  Level FlightAware
04:31AM 53.8440 -13.9700 106° East 514 592 35,000  Level FlightAware
04:32AM 54.0934 -13.9320 105° East  Level FlightAware Approximate
04:32AM 53.8180 -13.8140 106° East 512 589 35,000  Level FlightAware
04:33AM 53.7880 -13.6320 106° East 514 592 35,000  Level FlightAware
04:34AM 53.7560 -13.4300 105° East 517 595 35,000  Level FlightAware
04:35AM 53.7170 -13.2050 106° East 521 600 35,000  Level FlightAware
04:35AM 53.7230 -13.2440 285° West 521 600 35,000  Level FlightAware
04:36AM 53.6610 -12.8720 106° East 521 600 35,000  Level FlightAware
04:37AM 53.6310 -12.6900 105° East 523 602 35,000  Level FlightAware
04:38AM 53.6060 -12.5290 105° East 525 604 35,000 -120 Level FlightAware
04:38AM 53.5710 -12.3220 106° East 527 606 34,900 -120 Descending FlightAware
04:39AM 53.5450 -12.1670 106° East 526 605 34,900 60 Level FlightAware
04:40AM 53.5140 -11.9890 106° East 526 605 35,000  Climbing FlightAware
04:41AM 53.4650 -11.7160 107° East 523 602 35,000  Level FlightAware
04:42AM 53.4290 -11.5230 107° East 523 602 35,000  Level FlightAware
04:43AM 53.3970 -11.3450 107° East 524 603 35,000 -120 Level FlightAware
04:43AM 53.3640 -11.1680 107° East 524 603 34,900  Descending FlightAware
04:44AM 53.3350 -11.0140 107° East 524 603 35,000  Climbing FlightAware
04:45AM 53.3010 -10.8370 108° East 523 602 34,900 -120 Descending FlightAware
04:45AM 53.2760 -10.7050 108° East 525 604 34,900 60 Level FlightAware
04:46AM 53.2450 -10.5470 108° East 524 603 35,000 60 Climbing FlightAware
04:47AM 53.2080 -10.3550 108° East 523 602 35,000  Level FlightAware
04:48AM 53.1780 -10.2020 108° East 523 602 35,000  Level FlightAware
04:48AM 53.1450 -10.0350 108° East 523 602 35,000  Level FlightAware
04:49AM 53.1140 -9.8800 108° East 522 601 35,000 -120 Level FlightAware
04:50AM 53.0810 -9.7210 109° East 526 605 34,900  Descending FlightAware
04:50AM 53.0500 -9.5730 109° East 527 606 35,000 60 Climbing FlightAware
04:51AM 53.0160 -9.4060 109° East 528 608 35,000 -120 Level FlightAware
04:52AM 52.9760 -9.2210 110° East 526 605 34,900 -120 Descending FlightAware
04:52AM 52.9480 -9.0870 109° East 525 604 34,900 -1,500 Level FlightAware
04:53AM 52.9092 -8.9966 109° East 498 573 33,400 -2,100 Descending FlightAware UK
04:53AM 52.8950 -8.9285 109° East 496 571 33,400 2,820 Level FlightAware UK
04:53AM 52.9000 -8.8630 109° East 524 603 35,000  Climbing FlightAware
04:54AM 52.8666 -8.7913 109° East 500 575 33,400 -2,580 Descending FlightAware UK
04:54AM 52.8528 -8.7225 108° East 498 573 33,400 3,600 Level FlightAware UK
04:54AM 52.8650 -8.6910 108° East 523 602 34,900  Climbing FlightAware
04:54AM 52.8347 -8.6310 108° East 498 573 33,400 -2,580 Descending FlightAware UK
04:55AM 52.8209 -8.5623 108° East 496 571 33,400 5,280 Level FlightAware UK
04:55AM 52.8390 -8.5650 108° East 525 604 35,000  Climbing FlightAware
04:55AM 52.8070 -8.4938 108° East 496 571 33,400 -2,700 Descending FlightAware UK
04:55AM 52.7931 -8.4251 109° East 500 575 33,400 3,540 Level FlightAware UK
04:55AM 52.8040 -8.3920 109° East 526 605 35,000  Climbing FlightAware
04:56AM 52.7741 -8.3329 109° East 502 578 33,400 -2,940 Descending FlightAware UK
04:56AM 52.7597 -8.2645 109° East 500 575 33,400 3,600 Level FlightAware UK
04:56AM 52.7730 -8.2440 109° East 524 603 34,900  Climbing FlightAware
04:56AM 52.7403 -8.1734 109° East 494 568 33,400 -2,580 Descending FlightAware UK
04:57AM 52.7258 -8.1051 109° East 496 571 33,400 3,420 Level FlightAware UK
04:57AM 52.7360 -8.0740 109° East 536 617 35,000  Climbing FlightAware
04:57AM 52.7007 -7.9899 109° East 510 587 33,400 -2,580 Descending FlightAware UK
04:58AM 52.6849 -7.9191 110° East 512 589 33,400 4,500 Level FlightAware UK
04:58AM 52.7020 -7.9180 110° East 538 619 34,900  Climbing FlightAware
04:58AM 52.6695 -7.8496 110° East 512 589 33,400 -2,700 Descending FlightAware UK
04:58AM 52.6542 -7.7803 110° East 508 585 33,400 3,060 Level FlightAware UK
04:58AM 52.6610 -7.7340 110° East 535 616 34,900  Climbing FlightAware
04:59AM 52.6287 -7.6650 110° East 510 587 33,400 -2,460 Descending FlightAware UK
04:59AM 52.6135 -7.5959 110° East 512 589 33,400 4,260 Level FlightAware UK
04:59AM 52.6290 -7.5900 110° East 534 615 34,900  Climbing FlightAware
04:59AM 52.5981 -7.5273 110° East 508 585 33,400 -2,760 Descending FlightAware UK
05:00AM 52.5826 -7.4590 110° East 513 590 33,400 3,600 Level FlightAware UK
05:00AM 52.5950 -7.4390 110° East 533 613 34,900  Climbing FlightAware
05:00AM 52.5620 -7.3678 110° East 506 582 33,400 -2,580 Descending FlightAware UK
05:00AM 52.5465 -7.2995 110° East 506 582 33,400 2,700 Level FlightAware UK
05:00AM 52.5500 -7.2420 110° East 532 612 34,900  Climbing FlightAware
05:01AM 52.5206 -7.1857 110° East 504 580 33,400 -2,760 Descending FlightAware UK
05:01AM 52.5049 -7.1166 110° East 506 582 33,400 3,600 Level FlightAware UK
05:01AM 52.5150 -7.0920 110° East 533 613 34,900  Climbing FlightAware
05:01AM 52.4841 -7.0256 110° East 496 571 33,400 -2,580 Descending FlightAware UK
05:02AM 52.4683 -6.9572 111° Southeast 498 573 33,400 5,280 Level FlightAware UK
05:02AM 52.4880 -6.9720 111° Southeast 537 618 35,000  Climbing FlightAware
05:02AM 52.4524 -6.8886 111° Southeast 500 575 33,400 -2,700 Descending FlightAware UK
05:02AM 52.4363 -6.8195 111° Southeast 506 582 33,400 3,300 Level FlightAware UK
05:02AM 52.4430 -6.7810 111° Southeast 543 625 34,900  Climbing FlightAware
05:03AM 52.4145 -6.7263 111° Southeast 513 590 33,400 -2,760 Descending FlightAware UK
05:03AM 52.3982 -6.6566 111° Southeast 510 587 33,400 3,600 Level FlightAware UK
05:03AM 52.4070 -6.6290 111° Southeast 543 625 34,900  Climbing FlightAware
05:03AM 52.3767 -6.5642 111° Southeast 513 590 33,400 -2,580 Descending FlightAware UK
05:04AM 52.3604 -6.4953 111° Southeast 517 595 33,400 3,180 Level FlightAware UK
05:04AM 52.3670 -6.4580 111° Southeast 541 623 34,900  Climbing FlightAware
05:04AM 52.3278 -6.3579 111° Southeast 510 587 33,400  Descending FlightAware UK
05:05AM 52.3330 -6.3130 111° Southeast 539 620 34,900  Climbing FlightAware
05:05AM 52.3006 -6.2438 111° Southeast 512 589 33,400 -2,700 Descending FlightAware UK
05:05AM 52.2843 -6.1755 111° Southeast 508 585 33,400 3,060 Level FlightAware UK
05:05AM 52.2900 -6.1340 111° Southeast 538 619 34,900  Climbing FlightAware
05:06AM 52.2572 -6.0616 111° Southeast 508 585 33,400 -2,460 Descending FlightAware UK
05:06AM 52.2408 -5.9935 111° Southeast 506 582 33,400 3,420 Level FlightAware UK
05:06AM 52.2490 -5.9660 111° Southeast 538 619 34,900  Climbing FlightAware
05:06AM 52.2186 -5.9021 111° Southeast 506 582 33,400 -2,700 Descending FlightAware UK
05:07AM 52.2021 -5.8341 112° Southeast 510 587 33,400 3,720 Level FlightAware UK
05:07AM 52.2130 -5.8180 112° Southeast 538 619 34,900  Climbing FlightAware
05:07AM 52.1801 -5.7434 112° Southeast 508 585 33,400 -2,520 Descending FlightAware UK
05:07AM 52.1637 -5.6754 111° Southeast 508 585 33,400 4,080 Level FlightAware UK
05:07AM 52.1760 -5.6650 111° Southeast 538 619 34,900  Climbing FlightAware
05:08AM 52.1418 -5.5847 111° Southeast 510 587 33,400 120 Descending FlightAware UK
05:08AM 52.1350 -5.4910 111° Southeast 537 618 35,000  Climbing FlightAware
05:08AM 52.1039 -5.4259 111° Southeast 510 587 33,400 -2,760 Descending FlightAware UK
05:09AM 52.0881 -5.3577 111° Southeast 510 587 33,400 3,900 Level FlightAware UK
05:09AM 52.1010 -5.3460 111° Southeast 538 619 34,900  Climbing FlightAware
05:09AM 52.0669 -5.2671 111° Southeast 513 590 33,400  Descending FlightAware UK
05:10AM 52.0610 -5.1750 111° Southeast 535 616 34,900  Climbing FlightAware
05:10AM 52.0306 -5.1084 111° Southeast 512 589 33,400 -2,700 Descending FlightAware UK
05:10AM 52.0151 -5.0397 110° East 510 587 33,400 3,720 Level FlightAware UK
05:10AM 52.0270 -5.0240 110° East 533 613 34,900  Climbing FlightAware
05:11AM 51.9951 -4.9492 110° East 508 585 33,400 -2,520 Descending FlightAware UK
05:11AM 51.9803 -4.8815 110° East 508 585 33,400 4,080 Level FlightAware UK
05:11AM 51.9940 -4.8750 110° East 532 612 34,900  Climbing FlightAware
05:11AM 51.9502 -4.7465 110° East 504 580 33,400  Descending FlightAware UK
05:12AM 51.9560 -4.7040 110° East 532 612 34,900  Climbing FlightAware
05:12AM 51.9254 -4.6339 110° East 506 582 33,400  Descending FlightAware UK
05:12AM 51.9220 -4.5520 110° East 533 613 34,900  Climbing FlightAware
05:13AM 51.8807 -4.4307 110° East 508 585 33,400  Descending FlightAware UK
05:13AM 51.8890 -4.4010 110° East 533 613 34,900  Climbing FlightAware
05:14AM 51.8456 -4.2729 110° East 506 582 33,400 120 Descending FlightAware UK
05:14AM 51.8520 -4.2360 110° East 533 613 35,000  Climbing FlightAware
05:14AM 51.8102 -4.1146 110° East 510 587 33,400 -180 Descending FlightAware UK
05:14AM 51.8180 -4.0850 110° East 532 612 34,900  Climbing FlightAware
05:15AM 51.7904 -4.0246 110° East 506 582 33,400 -2,340 Descending FlightAware UK
05:15AM 51.7709 -3.9347 109° East 508 585 33,400 3,000 Level FlightAware UK
05:15AM 51.7820 -3.9200 109° East 532 612 34,900  Climbing FlightAware
05:15AM 51.7515 -3.8447 109° East 506 582 33,400  Descending FlightAware UK
05:16AM 51.7490 -3.7660 109° East 532 612 34,900  Climbing FlightAware
05:16AM 51.7131 -3.6646 109° East 502 578 33,400  Descending FlightAware UK
05:17AM 51.7140 -3.5994 109° East 534 615 34,900  Climbing FlightAware ADS-B
05:17AM 51.6796 -3.5067 109° East 508 585 33,400  Descending FlightAware UK
05:17AM 51.6820 -3.4500 109° East 534 615 34,900 3,300 Climbing FlightAware
05:17AM 51.6723 -3.4045 109° East 535 616 34,900  Level FlightAware ADS-B
05:18AM 51.6504 -3.2788 106° East 539 620 34,900 -1,800 Level FlightAware ADS-B
05:18AM 51.6268 -3.2061 106° East 508 585 33,400  Descending FlightAware UK
05:19AM 51.6350 -3.1330 106° East 545 627 34,900  Climbing FlightAware ADS-B
05:19AM 51.6149 -3.0611 106° East 504 580 33,400  Descending FlightAware UK
05:19AM 51.6250 -3.0042 106° East 546 628 34,900 2,040 Climbing FlightAware ADS-B
05:20AM 51.6151 -2.8757 97° East 547 629 35,000 -1,740 Climbing FlightAware ADS-B
05:20AM 51.5945 -2.7955 97° East 500 575 33,400 -180 Descending FlightAware UK
05:20AM 51.6043 -2.7354 97° East 549 632 34,900  Climbing FlightAware ADS-B
05:20AM 51.5850 -2.6736 97° East 498 573 33,400  Descending FlightAware UK
05:21AM 51.5958 -2.6191 97° East 551 634 34,900  Climbing FlightAware ADS-B
05:21AM 51.5766 -2.5518 97° East 500 575 33,400  Descending FlightAware UK
05:21AM 51.5871 -2.4892 97° East 553 636 34,900  Climbing FlightAware ADS-B
05:21AM 51.5684 -2.4291 97° East 502 578 33,400  Descending FlightAware UK
05:22AM 51.5783 -2.3618 97° East 555 639 34,900  Climbing FlightAware ADS-B
05:22AM 51.5584 -2.2811 97° East 502 578 33,400  Descending FlightAware UK
05:22AM 51.5696 -2.2364 97° East 555 639 34,900  Climbing FlightAware ADS-B
05:23AM 51.5496 -2.1576 97° East 506 582 33,400  Descending FlightAware UK
05:23AM 51.5608 -2.1121 97° East 556 640 34,900  Climbing FlightAware ADS-B
05:23AM 51.5406 -2.0342 97° East 508 585 33,400  Descending FlightAware UK
05:23AM 51.5519 -1.9880 97° East 555 639 34,900  Climbing FlightAware ADS-B
05:24AM 51.5317 -1.9117 97° East 506 582 33,400  Descending FlightAware UK
05:24AM 51.5427 -1.8645 97° East 553 636 34,900  Climbing FlightAware ADS-B
05:24AM 51.5207 -1.7654 97° East 506 582 33,400  Descending FlightAware UK
05:24AM 51.5329 -1.7324 97° East 552 635 34,900  Climbing FlightAware ADS-B
05:25AM 51.5133 -1.6675 97° East 506 582 33,400  Descending FlightAware UK
05:25AM 51.5236 -1.6102 97° East 551 634 34,900 2,040 Climbing FlightAware ADS-B
05:25AM 51.5140 -1.4865 97° East 551 634 34,900 -1,980 Level FlightAware ADS-B
05:26AM 51.4944 -1.4243 97° East 502 578 33,400  Descending FlightAware UK
05:26AM 51.5040 -1.3607 97° East 551 634 34,900  Climbing FlightAware ADS-B
05:26AM 51.4847 -1.3032 97° East 500 575 33,400  Descending FlightAware UK
05:26AM 51.4941 -1.2356 97° East 554 638 34,900  Climbing FlightAware ADS-B
05:27AM 51.4729 -1.1566 97° East 506 582 33,400  Descending FlightAware UK
05:27AM 51.4841 -1.1109 97° East 554 638 34,900  Climbing FlightAware ADS-B
05:27AM 51.4630 -1.0350 97° East 508 585 33,400  Descending FlightAware UK
05:28AM 51.4679 -0.9171 97° East 552 635 34,900  Climbing FlightAware ADS-B
05:28AM 51.4467 -0.8403 97° East 506 582 33,400  Descending FlightAware UK
05:28AM 51.4574 -0.7916 97° East 550 633 34,900 2,160 Climbing FlightAware ADS-B
05:29AM 51.4469 -0.6683 98° East 548 631 34,900 -1,860 Level FlightAware ADS-B
05:29AM 51.4259 -0.5991 98° East 504 580 33,400  Descending FlightAware UK
05:29AM 51.4345 -0.5254 98° East 545 627 34,900  Climbing FlightAware ADS-B
05:30AM 51.4110 -0.4309 98° East 498 573 33,400 180 Descending FlightAware UK
05:30AM 51.4231 -0.4021 98° East 542 624 35,000  Climbing FlightAware ADS-B
05:30AM 51.4019 -0.3364 98° East 502 578 33,400 -240 Descending FlightAware UK
05:30AM 51.4108 -0.2713 98° East 542 624 34,900 1,860 Climbing FlightAware ADS-B
05:31AM 51.3993 -0.1457 98° East 543 625 34,900  Level FlightAware ADS-B
05:31AM 51.3881 -0.0241 98° East 544 626 34,900  Level FlightAware ADS-B
05:32AM 51.3771 0.0966 98° East 545 627 34,900 -1,860 Level FlightAware ADS-B
05:32AM 51.3560 0.1626 98° East 502 578 33,400  Descending FlightAware UK
05:32AM 51.3644 0.2342 98° East 544 626 34,900  Climbing FlightAware ADS-B
05:33AM 51.3404 0.3289 98° East 504 580 33,400  Descending FlightAware UK
05:33AM 51.3495 0.3915 98° East 543 625 34,900  Climbing FlightAware ADS-B
05:33AM 51.3291 0.4479 98° East 502 578 33,400 180 Descending FlightAware UK
05:34AM 51.3380 0.5134 98° East 541 623 35,000  Climbing FlightAware ADS-B
05:34AM 51.3178 0.5657 98° East 504 580 33,400 -240 Descending FlightAware UK
05:34AM 51.3260 0.6370 98° East 539 620 34,900  Climbing FlightAware ADS-B
05:34AM 51.3039 0.7075 98° East 502 578 33,400  Descending FlightAware UK
05:35AM 51.3131 0.7684 98° East 538 619 34,900  Climbing FlightAware ADS-B
05:35AM 51.2922 0.8247 98° East 500 575 33,400  Descending FlightAware UK
05:35AM 51.3011 0.8887 98° East 538 619 34,900  Climbing FlightAware ADS-B
05:36AM 51.2736 1.0125 98° East 500 575 33,400  Descending FlightAware UK
05:36AM 51.2800 1.0980 98° East 537 618 34,900  Climbing FlightAware
05:36AM 51.2574 1.1761 98° East 498 573 33,400  Descending FlightAware UK
05:37AM 51.2650 1.2480 98° East 537 618 34,900  Climbing FlightAware
05:37AM 51.2430 1.3169 98° East 502 578 33,400 -2,580 Descending FlightAware UK
05:37AM 51.2323 1.3847 104° East 498 573 33,400 3,180 Level FlightAware UK
05:38AM 51.2440 1.4130 104° East 530 610 34,900  Climbing FlightAware
05:38AM 51.2090 1.5449 104° East 496 571 33,400  Descending FlightAware UK
05:38AM 51.2210 1.5750 104° East 532 612 34,900  Climbing FlightAware
05:38AM 51.1960 1.6352 104° East 498 573 33,400 -2,700 Descending FlightAware UK
05:39AM 51.1859 1.7042 103° East 498 573 33,400 3,720 Level FlightAware UK
05:39AM 51.2000 1.7210 103° East 531 611 34,900  Climbing FlightAware
05:39AM 51.1690 1.8179 103° East 496 571 33,400  Descending FlightAware UK
05:40AM 51.1730 1.8980 103° East 531 611 34,900  Climbing FlightAware
05:40AM 51.1449 1.9768 103° East 498 573 33,400  Descending FlightAware UK
05:40AM 51.1500 2.0480 103° East 530 610 34,900  Climbing FlightAware
05:41AM 51.1166 2.1577 103° East 500 575 33,400  Descending FlightAware UK
05:41AM 51.1230 2.2180 103° East 530 610 34,900  Climbing FlightAware
05:41AM 51.0944 2.2934 103° East 498 573 33,400  Descending FlightAware UK
05:42AM 51.1050 2.3340 104° East 529 609 34,900  Climbing FlightAware
05:42AM 51.0836 2.3609 104° East 500 575 33,400 -4,320 Descending FlightAware UK
05:42AM 51.0764 2.4059 104° East 502 578 33,400  Level FlightAware UK
05:42AM 51.0657 2.4733 104° East 500 575 33,400 2,640 Level FlightAware UK
05:42AM 51.0720 2.5350 104° East 529 609 34,900  Climbing FlightAware
05:43AM 51.0441 2.6079 104° East 498 573 33,400  Descending FlightAware UK
05:43AM 51.0500 2.6750 104° East 527 606 34,900  Climbing FlightAware
05:44AM 51.0152 2.7868 104° East 496 571 33,400 120 Descending FlightAware UK
05:44AM 51.0280 2.8120 104° East 528 608 35,000 2,400 Climbing FlightAware
05:44AM 51.0090 2.9250 104° East 528 608 34,900 -2,760 Descending FlightAware
05:44AM 50.9898 2.9429 104° East 494 568 33,400  Descending FlightAware UK
05:45AM 50.9810 3.1000 104° East 528 608 34,900  Climbing FlightAware
05:45AM 50.9526 3.1660 104° East 496 571 33,400  Descending FlightAware UK
05:46AM 50.9530 3.2700 104° East 528 608 34,900 1,380 Climbing FlightAware
05:46AM 50.9280 3.4150 105° East 524 603 34,900 -1,200 Level FlightAware
05:47AM 50.8893 3.5458 105° East 494 568 33,400  Descending FlightAware UK
05:47AM 50.9020 3.5710 105° East 523 602 34,900  Climbing FlightAware
05:47AM 50.8704 3.6567 105° East 496 571 33,400  Descending FlightAware UK
05:48AM 50.8790 3.7020 105° East 524 603 34,900  Climbing FlightAware
05:48AM 50.8548 3.7450 105° East 496 571 33,400  Descending FlightAware UK
05:48AM 50.8480 3.8810 105° East 524 603 34,900 1,080 Climbing FlightAware
05:49AM 50.8180 4.0490 106° East 524 603 34,900  Level FlightAware
05:50AM 50.7920 4.2030 105° East 524 603 34,900 -1,440 Level FlightAware
05:50AM 50.7620 4.2739 105° East 494 568 33,400  Descending FlightAware UK
05:51AM 50.7670 4.3430 105° East 522 601 34,900  Climbing FlightAware
05:51AM 50.7386 4.4066 105° East 494 568 33,400  Descending FlightAware UK
05:51AM 50.7380 4.5040 105° East 523 602 34,900 1,380 Climbing FlightAware
05:52AM 50.7120 4.6510 106° East 523 602 34,900  Level FlightAware
05:53AM 50.6810 4.8230 106° East 524 603 34,900  Level FlightAware
05:53AM 50.6550 4.9660 106° East 525 604 34,900  Level FlightAware
05:54AM 50.6160 5.1010 114° Southeast 499 574 34,900  Level FlightAware
05:55AM 50.5560 5.2280 127° Southeast 498 573 34,900  Level FlightAware
05:55AM 50.5020 5.3510 125° Southeast 502 578 34,900  Level FlightAware
05:56AM 50.4480 5.4820 123° Southeast 502 578 34,900  Level FlightAware
05:57AM 50.3930 5.6120 124° Southeast 497 572 34,900 60 Level FlightAware
05:58AM 50.3410 5.7280 125° Southeast 496 571 35,000  Climbing FlightAware
05:58AM 50.2810 5.8600 125° Southeast 496 571 34,900  Descending FlightAware
05:59AM 50.2290 5.9730 126° Southeast 496 571 35,000  Climbing FlightAware
06:00AM 50.1660 6.1100 126° Southeast 496 571 34,900 -120 Descending FlightAware
06:00AM 50.1150 6.2210 126° Southeast 495 570 34,900  Level FlightAware
06:01AM 50.0680 6.3240 125° Southeast 495 570 34,900 60 Level FlightAware
06:02AM 50.0010 6.4700 125° Southeast 494 568 35,000  Climbing FlightAware
06:02AM 49.9530 6.5750 125° Southeast 488 562 34,900 -120 Descending FlightAware
06:03AM 49.8940 6.7020 126° Southeast 486 559 34,900  Level FlightAware
06:04AM 49.8360 6.8280 125° Southeast 486 559 34,900  Level FlightAware
06:05AM 49.7870 6.9330 126° Southeast 490 564 34,900  Level FlightAware
06:05AM 49.7230 7.0680 126° Southeast 489 563 34,900  Level FlightAware
06:06AM 49.6690 7.1830 126° Southeast 488 562 34,900  Level FlightAware
06:07AM 49.6140 7.3000 126° Southeast 487 560 34,900  Level FlightAware
06:07AM 49.5630 7.4060 127° Southeast 486 559 34,900  Level FlightAware
06:08AM 49.5010 7.5350 126° Southeast 485 558 34,900  Level FlightAware
06:09AM 49.3920 7.7620 126° Southeast 485 558 34,900  Level FlightAware
06:10AM 49.3460 7.8580 126° Southeast 485 558 34,900  Level FlightAware
06:12AM 49.1970 8.1290 130° Southeast 480 552 35,000  Climbing FlightAware
06:12AM 49.1400 8.2170 135° Southeast 480 552 34,900  Descending FlightAware
06:13AM 49.0570 8.3410 136° Southeast 476 548 35,000 60 Climbing FlightAware
06:14AM 48.9940 8.4350 136° Southeast 477 549 35,000 -120 Level FlightAware
06:15AM 48.9320 8.5260 136° Southeast 475 547 34,900  Descending FlightAware
06:15AM 48.8700 8.6150 137° Southeast 475 547 35,000  Climbing FlightAware
06:16AM 48.7920 8.7280 136° Southeast 475 547 34,900 -120 Descending FlightAware
06:17AM 48.7200 8.8320 136° Southeast 475 547 34,900  Level FlightAware
06:17AM 48.6560 8.9260 136° Southeast 476 548 34,900 60 Level FlightAware
06:18AM 48.5900 9.0220 136° Southeast 476 548 35,000  Climbing FlightAware
06:19AM 48.5190 9.1250 136° Southeast 475 547 34,900 -120 Descending FlightAware
06:19AM 48.4570 9.2160 136° Southeast 475 547 34,900  Level FlightAware
06:20AM 48.3830 9.3220 136° Southeast 474 545 34,900  Level FlightAware
06:21AM 48.3190 9.4120 137° Southeast 472 543 34,900  Level FlightAware
06:22AM 48.2410 9.5040 142° Southeast 468 539 34,900 60 Level FlightAware
06:22AM 48.1720 9.5790 144° Southeast 474 545 35,000  Climbing FlightAware
06:23AM 48.1000 9.6560 144° Southeast 474 545 34,900 -120 Descending FlightAware
06:24AM 48.0160 9.7440 145° Southeast 473 544 34,900  Level FlightAware
06:24AM 47.9360 9.8290 145° Southeast 472 543 34,900 60 Level FlightAware
06:25AM 47.8800 9.8870 145° Southeast 472 543 35,000  Climbing FlightAware
06:26AM 47.7840 9.9880 145° Southeast 473 544 34,900 -120 Descending FlightAware
06:27AM 47.7240 10.0510 145° Southeast 473 544 34,900  Level FlightAware
06:27AM 47.6280 10.1510 145° Southeast 472 543 34,900  Level FlightAware
06:28AM 47.5310 10.2510 145° Southeast 470 541 34,900  Level FlightAware
06:29AM 47.4480 10.3370 145° Southeast 469 540 34,900  Level FlightAware
06:30AM 47.3690 10.4180 145° Southeast 468 539 34,900  Level FlightAware
06:30AM 47.2970 10.4910 145° Southeast 468 539 34,900  Level FlightAware
06:31AM 47.2300 10.5600 145° Southeast 468 539 34,900  Level FlightAware
06:32AM 47.1450 10.6470 145° Southeast 468 539 34,900 60 Level FlightAware
06:33AM 47.0710 10.7220 145° Southeast 468 539 35,000 60 Climbing FlightAware
06:33AM 47.0150 10.7930 139° Southeast 472 543 35,000 -60 Level FlightAware
06:34AM 46.9170 10.9460 133° Southeast 472 543 34,900 -120 Descending FlightAware
06:35AM 46.8590 11.0370 133° Southeast 474 545 34,900  Level FlightAware
06:36AM 46.7970 11.1330 133° Southeast 474 545 34,900  Level FlightAware
06:36AM 46.7310 11.2350 133° Southeast 469 540 34,900  Level FlightAware
06:37AM 46.6620 11.3400 134° Southeast 471 542 34,900  Level FlightAware
06:38AM 46.6000 11.4350 134° Southeast 472 543 34,900  Level FlightAware
06:38AM 46.5320 11.5390 134° Southeast 471 542 34,900  Level FlightAware
06:39AM 46.4730 11.6300 133° Southeast 471 542 34,900  Level FlightAware
06:40AM 46.4140 11.7190 134° Southeast 469 540 34,900  Level FlightAware
06:41AM 46.3420 11.8280 134° Southeast 471 542 34,900 60 Level FlightAware
06:41AM 46.2880 11.9100 134° Southeast 471 542 35,000  Climbing FlightAware
06:42AM 46.2120 12.0240 134° Southeast 471 542 34,900 -120 Descending FlightAware
06:43AM 46.1530 12.1140 133° Southeast 472 543 34,900  Level FlightAware
06:43AM 46.0890 12.2090 134° Southeast 473 544 34,900  Level FlightAware
06:44AM 46.0220 12.3090 134° Southeast 472 543 34,900 60 Level FlightAware
06:45AM 45.9630 12.4060 131° Southeast 476 548 35,000  Climbing FlightAware
06:45AM 45.9080 12.5180 125° Southeast 476 548 34,900 -120 Descending FlightAware
06:46AM 45.8530 12.6260 126° Southeast 482 555 34,900  Level FlightAware
06:47AM 45.8010 12.7240 127° Southeast 482 555 34,900  Level FlightAware
06:48AM 45.7360 12.8440 128° Southeast 477 549 34,900  Level FlightAware
06:48AM 45.6790 12.9500 128° Southeast 477 549 34,900  Level FlightAware
06:49AM 45.6260 13.0480 128° Southeast 477 549 34,900  Level FlightAware
06:50AM 45.5590 13.1700 128° Southeast 477 549 34,900  Level FlightAware
06:50AM 45.5120 13.2580 127° Southeast 479 551 34,900  Level FlightAware
06:51AM 45.4350 13.3990 128° Southeast 479 551 34,900  Level FlightAware
06:52AM 45.3710 13.5140 128° Southeast 478 550 35,000 240 Climbing FlightAware
06:53AM 45.3310 13.5850 129° Southeast 478 550 35,200 420 Climbing FlightAware
06:53AM 45.2560 13.7210 128° Southeast 495 570 35,600 420 Climbing FlightAware
06:54AM 45.1920 13.8360 128° Southeast 498 573 35,900 300 Climbing FlightAware
06:55AM 45.1360 13.9380 128° Southeast 499 574 36,100 300 Climbing FlightAware
06:56AM 45.0750 14.0480 128° Southeast 500 575 36,400 360 Climbing FlightAware
06:57AM 44.9810 14.2180 128° Southeast 499 574 36,800 240 Climbing FlightAware
06:57AM 44.9200 14.3280 128° Southeast 485 558 36,900 60 Climbing FlightAware
06:58AM 44.8620 14.4300 129° Southeast 482 555 36,900  Level FlightAware
06:59AM 44.7960 14.5490 128° Southeast 481 554 36,900  Level FlightAware
06:59AM 44.7550 14.6210 129° Southeast 482 555 36,900  Level FlightAware
07:00AM 44.6950 14.7270 129° Southeast 482 555 36,900  Level FlightAware
07:01AM 44.6330 14.8380 128° Southeast 486 559 36,900  Level FlightAware
07:01AM 44.5780 14.9340 129° Southeast 486 559 36,900  Level FlightAware
07:02AM 44.5030 15.0670 128° Southeast 487 560 36,900  Level FlightAware
07:03AM 44.4470 15.1650 129° Southeast 488 562 36,900  Level FlightAware
07:04AM 44.3950 15.2550 129° Southeast 488 562 36,900  Level FlightAware
07:04AM 44.3310 15.3660 129° Southeast 489 563 36,900  Level FlightAware
07:05AM 44.2810 15.4530 129° Southeast 489 563 36,900  Level FlightAware
07:06AM 44.2050 15.5830 129° Southeast 489 563 36,900  Level FlightAware
07:06AM 44.1500 15.6780 129° Southeast 489 563 36,900  Level FlightAware
07:07AM 44.0910 15.7770 130° Southeast 489 563 36,900  Level FlightAware
07:08AM 44.0270 15.8860 129° Southeast 489 563 36,900  Level FlightAware
07:09AM 43.9680 15.9860 129° Southeast 489 563 36,900  Level FlightAware
07:09AM 43.9110 16.0820 129° Southeast 484 557 36,900  Level FlightAware
07:10AM 43.8460 16.1900 130° Southeast 485 558 36,900  Level FlightAware
07:11AM 43.7880 16.2860 130° Southeast 485 558 36,900  Level FlightAware
07:11AM 43.7260 16.3890 130° Southeast 486 559 36,900  Level FlightAware
07:12AM 43.6640 16.4920 130° Southeast 486 559 36,900  Level FlightAware
07:13AM 43.5990 16.6010 129° Southeast 487 560 36,900  Level FlightAware
07:13AM 43.5420 16.6940 130° Southeast 487 560 36,900  Level FlightAware
07:14AM 43.4810 16.7950 130° Southeast 488 562 36,900  Level FlightAware
07:15AM 43.4160 16.9020 130° Southeast 489 563 36,900  Level FlightAware
07:16AM 43.3570 17.0000 130° Southeast 496 571 36,900  Level FlightAware
07:16AM 43.2900 17.1080 130° Southeast 498 573 36,900  Level FlightAware
07:17AM 43.2330 17.2010 130° Southeast 498 573 36,900  Level FlightAware
07:18AM 43.1740 17.2970 130° Southeast 499 574 36,900  Level FlightAware
07:18AM 43.1060 17.4080 130° Southeast 498 573 36,900  Level FlightAware
07:19AM 43.0460 17.5050 130° Southeast 499 574 36,900  Level FlightAware
07:20AM 42.9880 17.5980 130° Southeast 500 575 36,900  Level FlightAware
07:20AM 42.9250 17.6980 131° Southeast 500 575 36,900  Level FlightAware
07:21AM 42.8550 17.8110 130° Southeast 501 577 36,900  Level FlightAware
07:22AM 42.7880 17.9170 131° Southeast 501 577 36,900  Level FlightAware
07:23AM 42.7260 18.0160 130° Southeast 502 578 36,900  Level FlightAware
07:23AM 42.6580 18.1230 131° Southeast 502 578 36,900  Level FlightAware
07:24AM 42.5980 18.2180 131° Southeast 503 579 36,900  Level FlightAware
07:25AM 42.5380 18.3100 131° Southeast 503 579 36,900  Level FlightAware
07:25AM 42.4620 18.4150 134° Southeast 503 579 36,900  Level FlightAware
07:26AM 42.4000 18.5000 135° Southeast 503 579 36,900  Level FlightAware
07:27AM 42.3330 18.5910 135° Southeast 503 579 36,900  Level FlightAware
07:27AM 42.2580 18.6920 135° Southeast 503 579 36,900  Level FlightAware
07:28AM 42.1920 18.7810 135° Southeast 502 578 36,900  Level FlightAware
07:29AM 42.1180 18.8790 135° Southeast 502 578 36,900  Level FlightAware
07:30AM 42.0280 18.9990 135° Southeast 503 579 36,900  Level FlightAware
07:30AM 41.9610 19.0870 136° Southeast 502 578 36,900  Level FlightAware
07:31AM 41.8880 19.1840 135° Southeast 503 579 36,900  Level FlightAware
07:32AM 41.8180 19.2760 136° Southeast 503 579 36,900  Level FlightAware
07:33AM 41.7500 19.3610 137° Southeast 502 578 36,900  Level FlightAware
07:33AM 41.6710 19.4500 140° Southeast 503 579 36,900  Level FlightAware
07:34AM 41.5990 19.5310 140° Southeast 504 580 36,900  Level FlightAware
07:35AM 41.5070 19.6370 139° Southeast 505 581 36,900  Level FlightAware
07:36AM 41.4350 19.7150 141° Southeast 506 582 36,900  Level FlightAware
07:36AM 41.3540 19.8180 136° Southeast 508 585 36,900  Level FlightAware
07:37AM 41.2800 19.9170 135° Southeast 509 586 36,900  Level FlightAware
07:38AM 41.2140 20.0070 134° Southeast 509 586 36,900  Level FlightAware
07:38AM 41.1490 20.0950 134° Southeast 509 586 36,900  Level FlightAware
07:39AM 41.0870 20.1770 135° Southeast 510 587 36,900  Level FlightAware
07:40AM 41.0050 20.2850 135° Southeast 511 588 36,900  Level FlightAware
07:41AM 40.9310 20.3840 135° Southeast 514 592 36,900  Level FlightAware
07:41AM 40.8670 20.4690 135° Southeast 509 586 36,900  Level FlightAware
07:42AM 40.7990 20.5580 135° Southeast 516 594 36,900  Level FlightAware
07:43AM 40.7220 20.6580 135° Southeast 516 594 36,900  Level FlightAware
07:43AM 40.6550 20.7450 135° Southeast 515 593 36,900  Level FlightAware
07:44AM 40.5830 20.8390 135° Southeast 509 586 36,900  Level FlightAware
07:45AM 40.5120 20.9330 135° Southeast 515 593 36,900  Level FlightAware
07:45AM 40.4450 21.0260 133° Southeast 515 593 36,900  Level FlightAware
07:46AM 40.3740 21.1320 131° Southeast 516 594 36,900  Level FlightAware
07:47AM 40.3130 21.2230 131° Southeast 511 588 36,900  Level FlightAware
07:48AM 40.2390 21.3320 132° Southeast 511 588 36,900  Level FlightAware
07:48AM 40.1780 21.4200 132° Southeast 511 588 36,900  Level FlightAware
07:49AM 40.1130 21.5140 132° Southeast 510 587 36,900  Level FlightAware
07:50AM 40.0390 21.6210 132° Southeast 508 585 36,900  Level FlightAware
07:50AM 39.9750 21.7130 132° Southeast 508 585 36,900  Level FlightAware
07:51AM 39.9110 21.8050 132° Southeast 507 583 36,900  Level FlightAware
07:52AM 39.8400 21.9060 132° Southeast 509 586 36,900  Level FlightAware
07:52AM 39.7760 21.9990 132° Southeast 510 587 36,900  Level FlightAware
07:53AM 39.7040 22.1010 133° Southeast 510 587 36,900  Level FlightAware
07:54AM 39.6380 22.1940 133° Southeast 512 589 36,900  Level FlightAware
07:55AM 39.5660 22.2960 132° Southeast 518 596 36,900  Level FlightAware
07:55AM 39.5000 22.3880 133° Southeast 520 598 36,900  Level FlightAware
07:56AM 39.4350 22.4790 133° Southeast 519 597 36,900  Level FlightAware
07:57AM 39.3630 22.5800 133° Southeast 519 597 36,900  Level FlightAware
07:57AM 39.2960 22.6730 133° Southeast 519 597 36,900  Level FlightAware
07:58AM 39.2220 22.7750 133° Southeast 519 597 36,900  Level FlightAware
07:59AM 39.1560 22.8660 133° Southeast 518 596 36,900  Level FlightAware
07:59AM 39.0950 22.9510 133° Southeast 517 595 36,900  Level FlightAware
08:00AM 39.0190 23.0550 133° Southeast 515 593 36,900  Level FlightAware
08:01AM 38.9590 23.1360 134° Southeast 515 593 36,900  Level FlightAware
08:02AM 38.8790 23.2440 134° Southeast 514 592 36,900  Level FlightAware
08:02AM 38.8280 23.3140 133° Southeast 514 592 36,900  Level FlightAware
08:03AM 38.7730 23.3900 133° Southeast 514 592 36,900  Level FlightAware
08:04AM 38.7040 23.4850 133° Southeast 514 592 36,900  Level FlightAware
08:04AM 38.6490 23.5600 133° Southeast 514 592 36,900  Level FlightAware
08:05AM 38.5940 23.6360 133° Southeast 514 592 36,900  Level FlightAware
08:06AM 38.5390 23.7120 133° Southeast 514 592 36,900  Level FlightAware
08:06AM 38.4700 23.8060 133° Southeast 514 592 36,900  Level FlightAware
08:07AM 38.4140 23.8820 133° Southeast 514 592 36,900  Level FlightAware
08:08AM 38.3590 23.9570 133° Southeast 514 592 36,900  Level FlightAware
08:08AM 38.3040 24.0330 133° Southeast 514 592 36,900  Level FlightAware
08:09AM 38.2490 24.1080 133° Southeast 514 592 36,900  Level FlightAware
08:10AM 38.1940 24.1830 133° Southeast 514 592 36,900  Level FlightAware
08:11AM 38.1250 24.2770 133° Southeast 514 592 36,900  Level FlightAware
08:11AM 38.0700 24.3520 133° Southeast 514 592 36,900  Level FlightAware
08:14AM 37.9043 24.6872 122° Southeast  Level Estimated
08:15AM 37.8292 24.8379 122° Southeast  Level Estimated
08:16AM 37.7538 24.9886 122° Southeast  Level Estimated
08:17AM 37.6782 25.1390 122° Southeast  Level Estimated
08:18AM 37.6024 25.2890 122° Southeast  Level Estimated
08:18AM 37.3540 25.5480 122° Southeast 518 596 36,900  Level FlightAware
08:19AM 37.2980 25.6440 126° Southeast 518 596 36,900  Level FlightAware
08:20AM 37.2360 25.7510 126° Southeast 516 594 36,900 60 Level FlightAware
08:20AM 37.1880 25.8330 126° Southeast 515 593 37,000 240 Climbing FlightAware
08:21AM 37.1170 25.9540 126° Southeast 510 587 37,300 300 Climbing FlightAware
08:22AM 37.0590 26.0530 126° Southeast 510 587 37,500 360 Climbing FlightAware
08:22AM 37.0050 26.1450 126° Southeast 510 587 37,800 420 Climbing FlightAware
08:23AM 36.9420 26.2500 127° Southeast 509 586 38,100 300 Climbing FlightAware
08:24AM 36.8850 26.3460 127° Southeast 510 587 38,300 240 Climbing FlightAware
08:25AM 36.8190 26.4580 126° Southeast 510 587 38,500 360 Climbing FlightAware
08:26AM 36.7420 26.5830 128° Southeast 511 588 38,900 180 Climbing FlightAware
08:26AM 36.6660 26.7090 127° Southeast 512 589 38,900  Level FlightAware
08:27AM 36.6130 26.7990 126° Southeast 511 588 38,900  Level FlightAware
08:29AM 36.4720 27.0280 127° Southeast 515 593 38,900  Level FlightAware
08:29AM 36.4060 27.1360 127° Southeast 516 594 38,900  Level FlightAware
08:30AM 36.3480 27.2320 127° Southeast 517 595 38,900  Level FlightAware
08:31AM 36.2990 27.3120 127° Southeast 517 595 38,900  Level FlightAware
08:32AM 36.2500 27.3930 127° Southeast 517 595 38,900  Level FlightAware
08:32AM 36.2010 27.4730 127° Southeast 517 595 38,900  Level FlightAware
08:33AM 36.1520 27.5540 127° Southeast 517 595 38,900  Level FlightAware
08:34AM 36.0910 27.6540 127° Southeast 517 595 38,900  Level FlightAware
08:34AM 36.0420 27.7350 127° Southeast 517 595 38,900  Level FlightAware
08:35AM 35.9930 27.8150 127° Southeast 517 595 38,900  Level FlightAware
08:36AM 35.8490 28.0290 130° Southeast 520 598 38,900  Level FlightAware
08:36AM 35.7850 28.1300 128° Southeast 518 596 38,900  Level FlightAware
08:37AM 35.7220 28.2310 128° Southeast 518 596 38,900  Level FlightAware
08:38AM 35.6630 28.3240 128° Southeast 517 595 38,900  Level FlightAware
08:39AM 35.5950 28.4310 128° Southeast 515 593 38,900  Level FlightAware
08:39AM 35.5370 28.5220 128° Southeast 514 592 38,900  Level FlightAware
08:40AM 35.4720 28.6230 128° Southeast 515 593 38,900  Level FlightAware
08:41AM 35.4130 28.7160 128° Southeast 514 592 38,900  Level FlightAware
08:41AM 35.3450 28.8210 128° Southeast 513 590 38,900  Level FlightAware
08:42AM 35.2860 28.9130 128° Southeast 513 590 38,900  Level FlightAware
08:43AM 35.2060 29.0370 128° Southeast 508 585 38,900  Level FlightAware
08:44AM 35.1590 29.1090 129° Southeast 508 585 38,900  Level FlightAware
08:45AM 35.0640 29.2560 128° Southeast 515 593 38,900  Level FlightAware
08:45AM 35.0060 29.3460 128° Southeast 515 593 38,900  Level FlightAware
08:46AM 34.9320 29.4590 129° Southeast 516 594 38,900  Level FlightAware
08:47AM 34.8540 29.5770 129° Southeast 518 596 38,900  Level FlightAware
08:48AM 34.7930 29.6700 129° Southeast 519 597 38,900  Level FlightAware
08:48AM 34.7330 29.7610 129° Southeast 520 598 38,900  Level FlightAware
08:49AM 34.6640 29.8660 129° Southeast 520 598 38,900  Level FlightAware
08:50AM 34.6130 29.9430 129° Southeast 517 595 38,900  Level FlightAware
08:50AM 34.5530 30.0470 125° Southeast 517 595 38,900  Level FlightAware
08:51AM 34.5070 30.1460 119° Southeast 518 596 38,900  Level FlightAware
08:52AM 34.4420 30.2820 120° Southeast 518 596 38,900  Level FlightAware
08:53AM 34.3910 30.3850 121° Southeast 518 596 38,900  Level FlightAware
08:53AM 34.3370 30.4940 121° Southeast 517 595 38,900  Level FlightAware
08:54AM 34.2850 30.5970 121° Southeast 518 596 38,900  Level FlightAware
08:56AM 34.1770 30.8180 121° Southeast 516 594 38,900  Level FlightAware
08:56AM 34.1160 30.9430 120° Southeast 515 593 38,900  Level FlightAware
08:57AM 34.0680 31.0410 121° Southeast 515 593 38,900  Level FlightAware
08:58AM 34.0230 31.1320 121° Southeast 515 593 38,900  Level FlightAware
08:58AM 33.9640 31.2530 120° Southeast 516 594 38,900  Level FlightAware
08:59AM 33.9140 31.3540 121° Southeast 516 594 38,900  Level FlightAware
09:00AM 33.8590 31.4660 121° Southeast 516 594 38,900  Level FlightAware
09:01AM 33.8100 31.5640 121° Southeast 517 595 38,900  Level FlightAware
09:01AM 33.7610 31.6640 120° Southeast 518 596 38,900  Level FlightAware
09:02AM 33.7050 31.7760 121° Southeast 519 597 38,900  Level FlightAware
09:03AM 33.6550 31.8770 121° Southeast 518 596 38,900  Level FlightAware
09:03AM 33.5990 31.9890 121° Southeast 518 596 38,900  Level FlightAware
09:04AM 33.5500 32.0880 121° Southeast 518 596 38,900  Level FlightAware
09:05AM 33.4990 32.1890 121° Southeast 515 593 38,900  Level FlightAware
09:05AM 33.4420 32.3010 121° Southeast 514 592 38,900  Level FlightAware
09:06AM 33.3930 32.3990 121° Southeast 516 594 38,900  Level FlightAware
09:08AM 33.2400 32.6980 121° Southeast 518 596 38,900  Level FlightAware
09:09AM 33.1800 32.8150 121° Southeast 519 597 38,900  Level FlightAware
09:10AM 33.1310 32.9100 122° Southeast 521 600 38,900 -120 Level FlightAware
09:10AM 33.0780 33.0120 122° Southeast 522 601 38,800 -1,200 Descending FlightAware
09:11AM 33.0200 33.1230 122° Southeast 513 590 37,200 -1,860 Descending FlightAware
09:12AM 32.9620 33.2390 121° Southeast 510 587 35,900 -3,000 Descending FlightAware
09:13AM 32.9050 33.3460 122° Southeast 506 582 32,500 -4,140 Descending FlightAware
09:13AM 32.8470 33.4590 121° Southeast 508 585 29,700 -3,480 Descending FlightAware
09:14AM 32.7980 33.5510 122° Southeast 500 575 27,600 -3,180 Descending FlightAware
09:15AM 32.7490 33.6460 122° Southeast 488 562 25,500 -3,360 Descending FlightAware
09:15AM 32.6970 33.7440 122° Southeast 480 552 22,900 -3,480 Descending FlightAware
09:16AM 32.6500 33.8330 122° Southeast 470 541 20,600 -3,720 Descending FlightAware
09:17AM 32.5990 33.9310 122° Southeast 446 513 17,700 -4,080 Descending FlightAware
09:18AM 32.5570 34.0120 122° Southeast 424 488 14,900 -4,320 Descending FlightAware
09:18AM 32.5110 34.0990 122° Southeast 405 466 11,600 -3,300 Descending FlightAware
09:19AM 32.4620 34.1610 133° Southeast 375 432 10,300 -1,080 Descending FlightAware
09:20AM 32.4040 34.1920 156° South 324 373 10,200  Descending FlightAware
09:20AM 32.3440 34.2190 159° South 274 315 10,300 -360 Climbing FlightAware
09:21AM 32.3160 34.2320 159° South 269 310 9,800 -1,080 Descending FlightAware
09:21AM 32.3000 34.2390 160° South 264 304 9,600 -1,200 Descending FlightAware
09:22AM 32.2640 34.2560 158° South 261 300 8,900 -900 Descending FlightAware
09:22AM 32.2250 34.2740 159° South 260 299 8,600 -300 Descending FlightAware
09:23AM 32.1970 34.2880 157° South 260 299 8,600  Level FlightAware
09:23AM 32.1870 34.2920 161° South 260 299 8,600  Level FlightAware
09:23AM 32.1590 34.3060 157° South 260 299 8,600  Level FlightAware
09:24AM 32.1490 34.3110 157° South 260 299 8,600  Level FlightAware
09:26AM 32.0719 34.6253 106° East  Level Estimated
09:27AM 32.0324 34.7849 106° East  Level Estimated
09:28AM 32.0095 34.8769 106° East  Level Estimated
09:29AM 32.0095 34.8769 270° West  Level Estimated
09:30AM 32.0095 34.8769 270° West  Level Estimated
09:31AM 32.0095 34.8769 270° West  Level Estimated
09:32AM 32.0095 34.8769 270° West  Level Estimated